Time;durP1;ratioP1;P1;durP2;ratioP2;P2;SDS_P1;SDS_P2;PMS_P1;PMS_P2;Temp;Humidity;BMP_temperature;BMP_pressure;BME280_temperature;BME280_humidity;BME280_pressure;Samples;Min_cycle;Max_cycle;Signal;HPM_P1;HPM_P2
2022/12/02 00:00:55;;;;;;;30.60;14.98;;;1.50;99.90;;;;;;5153828;28;20047;-59
2022/12/02 00:03:29;;;;;;;26.50;13.30;;;1.50;99.90;;;;;;5172143;28;20050;-59
2022/12/02 00:06:09;;;;;;;29.38;15.40;;;1.50;99.90;;;;;;5172628;28;20253;-60
2022/12/02 00:08:46;;;;;;;33.95;15.30;;;1.50;99.90;;;;;;5142468;28;20053;-59
2022/12/02 00:11:35;;;;;;;27.83;14.23;;;1.50;99.90;;;;;;5151973;28;20043;-60
2022/12/02 00:14:28;;;;;;;32.70;15.45;;;1.60;99.90;;;;;;5165647;28;20058;-60
2022/12/02 00:17:05;;;;;;;30.17;15.05;;;1.60;99.90;;;;;;5148720;28;20047;-59
2022/12/02 00:19:39;;;;;;;37.83;15.80;;;1.60;99.90;;;;;;5134247;29;20043;-59
2022/12/02 00:22:13;;;;;;;;;;;1.50;99.90;;;;;;5138524;28;20027;-59
2022/12/02 00:24:47;;;;;;;33.53;16.20;;;1.50;99.90;;;;;;5167774;28;19916;-58
2022/12/02 00:27:20;;;;;;;30.05;14.85;;;1.40;99.90;;;;;;5152045;28;20051;-60
2022/12/02 00:29:55;;;;;;;31.23;14.57;;;1.40;99.90;;;;;;5152337;28;20064;-58
2022/12/02 00:32:32;;;;;;;36.53;14.68;;;1.50;99.90;;;;;;5146664;28;20469;-58
2022/12/02 00:35:10;;;;;;;29.52;14.52;;;1.50;99.90;;;;;;5140704;28;20050;-58
2022/12/02 00:37:50;;;;;;;31.02;14.63;;;1.60;99.90;;;;;;5151288;28;20053;-59
2022/12/02 00:40:22;;;;;;;31.35;15.25;;;1.60;99.90;;;;;;5167908;28;20057;-59
2022/12/02 00:48:49;;;;;;;31.13;14.68;;;1.70;99.90;;;;;;5153442;28;20223;-60
2022/12/02 00:51:37;;;;;;;29.90;14.20;;;1.80;99.90;;;;;;5135005;28;20334;-58
2022/12/02 00:54:12;;;;;;;29.73;13.85;;;1.80;99.90;;;;;;5150249;28;20065;-59
2022/12/02 00:56:44;;;;;;;26.77;12.68;;;1.80;99.90;;;;;;5141061;28;20054;-59
2022/12/02 00:59:21;;;;;;;27.20;13.70;;;1.80;99.90;;;;;;5146235;28;20339;-60
2022/12/02 01:01:55;;;;;;;29.95;13.95;;;1.70;99.90;;;;;;5166813;23;20204;-60
2022/12/02 01:04:31;;;;;;;27.20;14.18;;;1.70;99.90;;;;;;5126903;28;20057;-59
2022/12/02 01:07:03;;;;;;;30.13;13.75;;;1.70;99.90;;;;;;5133395;28;20563;-60
2022/12/02 01:09:35;;;;;;;29.38;13.10;;;1.70;99.90;;;;;;5151977;28;20215;-59
2022/12/02 01:12:10;;;;;;;31.02;15.05;;;1.70;99.90;;;;;;5125747;28;20043;-60
2022/12/02 01:14:44;;;;;;;29.83;13.60;;;1.70;99.90;;;;;;5154979;28;20049;-59
2022/12/02 01:17:18;;;;;;;;;;;1.70;99.90;;;;;;5124274;28;20042;-58
2022/12/02 01:19:52;;;;;;;29.73;15.18;;;1.70;99.90;;;;;;5128528;28;19933;-60
2022/12/02 01:22:25;;;;;;;31.17;14.43;;;1.60;99.90;;;;;;5122059;28;20047;-60
2022/12/02 01:24:57;;;;;;;37.20;15.82;;;1.60;99.90;;;;;;5138571;28;20046;-60
2022/12/02 01:27:32;;;;;;;36.25;16.23;;;1.60;99.90;;;;;;5139547;28;20046;-61
2022/12/02 01:30:10;;;;;;;29.45;14.05;;;1.60;99.90;;;;;;5154378;28;20049;-61
2022/12/02 01:32:44;;;;;;;29.52;13.60;;;1.70;99.90;;;;;;5138594;28;20031;-60
2022/12/02 01:35:19;;;;;;;30.23;14.07;;;1.70;99.90;;;;;;5139052;28;20392;-59
2022/12/02 01:37:53;;;;;;;33.45;15.30;;;1.70;99.90;;;;;;5139171;28;20049;-59
2022/12/02 01:40:32;;;;;;;31.08;13.70;;;1.60;99.90;;;;;;5123857;28;20038;-59
2022/12/02 01:43:04;;;;;;;27.42;13.65;;;1.60;99.90;;;;;;5123465;28;20045;-60
2022/12/02 01:45:38;;;;;;;27.73;13.93;;;1.70;99.90;;;;;;5155000;28;20035;-59
2022/12/02 01:48:12;;;;;;;38.15;15.52;;;1.80;99.90;;;;;;5138026;28;20243;-59
2022/12/02 01:50:48;;;;;;;31.45;14.63;;;1.70;99.90;;;;;;5123231;28;20049;-59
2022/12/02 01:53:22;;;;;;;28.77;13.05;;;1.60;99.90;;;;;;5137612;28;20050;-60
2022/12/02 01:55:56;;;;;;;32.78;15.50;;;1.60;99.90;;;;;;5138448;28;20474;-60
2022/12/02 01:58:35;;;;;;;28.55;14.13;;;1.70;99.90;;;;;;5106732;28;20034;-59
2022/12/02 02:01:33;;;;;;;31.55;14.75;;;1.70;99.90;;;;;;5107261;28;20043;-59
2022/12/02 02:04:15;;;;;;;32.05;14.25;;;1.60;99.90;;;;;;5154400;28;20034;-59
2022/12/02 02:06:47;;;;;;;32.67;14.10;;;1.50;99.90;;;;;;5111724;28;20050;-59
2022/12/02 02:09:21;;;;;;;30.95;14.60;;;1.60;99.90;;;;;;5151787;28;20043;-61
2022/12/02 02:12:00;;;;;;;34.97;15.52;;;1.70;99.90;;;;;;5138087;28;20068;-59
2022/12/02 02:14:33;;;;;;;31.70;13.77;;;1.80;99.90;;;;;;5135085;28;20047;-60
2022/12/02 02:17:04;;;;;;;29.95;13.88;;;1.80;99.90;;;;;;5117954;28;20050;-60
2022/12/02 02:19:38;;;;;;;29.42;12.75;;;1.90;99.90;;;;;;5106316;28;20039;-59
2022/12/02 02:22:22;;;;;;;26.40;13.73;;;1.90;99.90;;;;;;5138055;28;20045;-61
2022/12/02 02:24:56;;;;;;;25.33;13.07;;;1.90;99.90;;;;;;5120981;28;20046;-60
2022/12/02 02:27:28;;;;;;;28.23;13.85;;;2.00;99.90;;;;;;5138920;28;20042;-59
2022/12/02 02:30:01;;;;;;;34.30;14.15;;;2.00;99.90;;;;;;5138196;28;20534;-59
2022/12/02 02:32:40;;;;;;;33.22;16.02;;;2.00;99.90;;;;;;5121718;28;20046;-60
2022/12/02 02:35:16;;;;;;;29.75;13.93;;;2.00;99.90;;;;;;5138550;28;20052;-59
2022/12/02 02:37:57;;;;;;;30.10;14.23;;;2.00;99.90;;;;;;5138875;28;20197;-60
2022/12/02 02:40:35;;;;;;;27.98;13.27;;;2.10;99.90;;;;;;5121768;28;20047;-59
2022/12/02 02:43:11;;;;;;;33.70;14.82;;;2.20;99.90;;;;;;5137576;28;20244;-59
2022/12/02 02:45:47;;;;;;;28.33;13.43;;;2.10;99.90;;;;;;5137568;28;20054;-59
2022/12/02 02:48:22;;;;;;;26.52;13.02;;;2.20;99.90;;;;;;5138195;28;20039;-61
2022/12/02 02:51:11;;;;;;;28.08;13.82;;;2.20;99.90;;;;;;5136695;28;20347;-59
2022/12/02 02:53:48;;;;;;;31.45;14.02;;;2.10;99.90;;;;;;5118743;28;20043;-62
2022/12/02 02:56:22;;;;;;;27.85;12.98;;;2.10;99.90;;;;;;5155719;28;20034;-60
2022/12/02 02:59:00;;;;;;;32.10;14.07;;;2.00;99.90;;;;;;5152712;28;20039;-60
2022/12/02 03:01:37;;;;;;;31.90;13.60;;;2.00;99.90;;;;;;5136646;28;20233;-60
2022/12/02 03:04:12;;;;;;;27.35;14.00;;;2.10;99.90;;;;;;5138175;28;20346;-60
2022/12/02 03:06:45;;;;;;;26.65;12.50;;;1.90;99.90;;;;;;5128335;28;20065;-60
2022/12/02 03:09:25;;;;;;;32.15;13.60;;;1.90;99.90;;;;;;5153200;28;20052;-60
2022/12/02 03:12:05;;;;;;;31.88;14.32;;;1.90;99.90;;;;;;5152454;28;20048;-59
2022/12/02 03:14:42;;;;;;;29.33;13.85;;;1.80;99.90;;;;;;5123396;28;20046;-59
2022/12/02 03:17:14;;;;;;;29.55;15.23;;;1.70;99.90;;;;;;5086448;29;20051;-59
2022/12/02 03:19:48;;;;;;;32.35;14.13;;;1.70;99.90;;;;;;5101379;29;20051;-60
2022/12/02 03:22:22;;;;;;;29.63;13.30;;;1.70;99.90;;;;;;5117447;29;20047;-59
2022/12/02 03:25:01;;;;;;;34.47;14.85;;;1.60;99.90;;;;;;5145508;28;20046;-60
2022/12/02 03:27:33;;;;;;;36.45;14.57;;;1.60;99.90;;;;;;5137623;28;20042;-60
2022/12/02 03:30:07;;;;;;;30.58;13.77;;;1.70;99.90;;;;;;5136500;28;20509;-59
2022/12/02 03:32:41;;;;;;;29.88;14.00;;;1.80;99.90;;;;;;5152171;28;20046;-59
2022/12/02 03:35:13;;;;;;;34.38;14.32;;;1.80;99.90;;;;;;5123263;28;20049;-59
2022/12/02 03:37:46;;;;;;;30.52;14.43;;;1.80;99.90;;;;;;5121113;28;20042;-59
2022/12/02 03:40:22;;;;;;;32.95;13.38;;;1.80;99.90;;;;;;5135350;28;20075;-60
2022/12/02 03:43:00;;;;;;;32.05;14.70;;;1.90;99.90;;;;;;5153187;28;20045;-61
2022/12/02 03:45:38;;;;;;;33.45;15.10;;;1.80;99.90;;;;;;5120919;28;20047;-59
2022/12/02 03:48:20;;;;;;;28.90;13.68;;;1.80;99.90;;;;;;5136658;28;20030;-59
2022/12/02 03:50:55;;;;;;;29.55;13.90;;;1.80;99.90;;;;;;5137768;28;20046;-58
2022/12/02 03:53:29;;;;;;;32.60;14.10;;;1.80;99.90;;;;;;5137552;28;20251;-58
2022/12/02 03:56:06;;;;;;;30.23;14.05;;;1.70;99.90;;;;;;5140824;28;20069;-59
2022/12/02 03:58:52;;;;;;;28.65;14.10;;;1.70;99.90;;;;;;5131066;28;20332;-64
2022/12/02 04:01:28;;;;;;;26.58;13.23;;;1.80;99.90;;;;;;5136744;28;20050;-60
2022/12/02 04:04:02;;;;;;;27.75;13.88;;;1.70;99.90;;;;;;5151471;28;20065;-60
2022/12/02 04:06:39;;;;;;;36.97;14.43;;;1.70;99.90;;;;;;5125427;28;20205;-59
2022/12/02 04:09:11;;;;;;;37.20;15.02;;;1.60;99.90;;;;;;5135836;28;20046;-59
2022/12/02 04:11:43;;;;;;;33.90;14.25;;;1.60;99.90;;;;;;5136152;28;20131;-59
2022/12/02 04:14:20;;;;;;;34.10;15.88;;;1.60;99.90;;;;;;5122703;28;20049;-59
2022/12/02 04:16:56;;;;;;;35.83;15.35;;;1.60;99.90;;;;;;5152600;28;20039;-60
2022/12/02 04:19:33;;;;;;;27.13;14.75;;;1.50;99.90;;;;;;5132914;28;20058;-59
2022/12/02 04:22:05;;;;;;;33.67;15.02;;;1.60;99.90;;;;;;5132690;28;20236;-60
2022/12/02 04:24:39;;;;;;;29.75;14.45;;;1.60;99.90;;;;;;5131758;28;20049;-59
2022/12/02 04:27:12;;;;;;;;;;;1.60;99.90;;;;;;5150372;28;20039;-59
2022/12/02 04:29:43;;;;;;;28.63;13.82;;;1.70;99.90;;;;;;5163271;28;19928;-61
2022/12/02 04:32:15;;;;;;;27.40;14.40;;;1.80;99.90;;;;;;5135257;28;20049;-59
2022/12/02 04:34:49;;;;;;;32.67;14.93;;;1.80;99.90;;;;;;5135302;28;20316;-60
2022/12/02 04:37:24;;;;;;;33.55;14.10;;;1.90;99.90;;;;;;5140743;28;20046;-58
2022/12/02 04:39:58;;;;;;;34.22;15.88;;;1.90;99.90;;;;;;5129416;28;20047;-60
2022/12/02 04:42:37;;;;;;;32.30;14.75;;;1.90;99.90;;;;;;5136056;28;20050;-60
2022/12/02 04:45:14;;;;;;;32.60;15.02;;;1.80;99.90;;;;;;5136276;28;20046;-59
2022/12/02 04:47:45;;;;;;;33.33;14.90;;;1.80;99.90;;;;;;5155823;28;20241;-60
2022/12/02 04:50:20;;;;;;;24.85;12.15;;;1.90;99.90;;;;;;5124143;28;20051;-59
2022/12/02 04:52:51;;;;;;;28.60;13.88;;;1.90;99.90;;;;;;5138695;28;20099;-59
2022/12/02 04:55:25;;;;;;;33.72;15.93;;;1.90;99.90;;;;;;5138475;28;20053;-59
2022/12/02 04:57:59;;;;;;;32.55;14.13;;;2.10;99.90;;;;;;5130503;28;20231;-59
2022/12/02 05:00:30;;;;;;;31.92;15.45;;;2.10;99.90;;;;;;5138109;28;20212;-60
2022/12/02 05:03:04;;;;;;;31.48;14.68;;;2.10;99.90;;;;;;5137089;28;20052;-59
2022/12/02 05:05:41;;;;;;;27.52;13.10;;;2.10;99.90;;;;;;5146470;28;20055;-60
2022/12/02 05:08:15;;;;;;;34.80;15.65;;;2.20;99.90;;;;;;5125137;28;20031;-59
2022/12/02 05:10:49;;;;;;;28.10;13.80;;;2.30;99.90;;;;;;5138968;28;20035;-60
2022/12/02 05:13:23;;;;;;;30.17;13.38;;;2.30;99.90;;;;;;5124140;28;20035;-60
2022/12/02 05:15:57;;;;;;;31.95;14.50;;;2.20;99.90;;;;;;5139225;28;20047;-60
2022/12/02 05:18:28;;;;;;;30.98;14.68;;;2.10;99.90;;;;;;5135359;29;20039;-58
2022/12/02 05:21:07;;;;;;;31.90;15.77;;;2.10;99.90;;;;;;5135330;28;20043;-61
2022/12/02 05:23:42;;;;;;;31.90;15.60;;;1.90;99.90;;;;;;5135223;29;20405;-60
2022/12/02 05:26:26;;;;;;;27.30;13.07;;;2.00;99.90;;;;;;5137780;28;20057;-60
2022/12/02 05:29:03;;;;;;;31.25;15.63;;;2.00;99.90;;;;;;5139879;28;20405;-59
2022/12/02 05:31:35;;;;;;;34.53;15.18;;;2.10;99.90;;;;;;5137946;28;20030;-60
2022/12/02 05:34:06;;;;;;;34.33;15.80;;;2.20;99.90;;;;;;5121682;28;20357;-62
2022/12/02 05:36:40;;;;;;;35.53;16.15;;;2.30;99.90;;;;;;5153608;28;20030;-59
2022/12/02 05:39:17;;;;;;;32.00;14.27;;;2.20;99.90;;;;;;5106542;28;20057;-59
2022/12/02 05:41:53;;;;;;;35.50;15.82;;;2.30;99.90;;;;;;5137718;28;20331;-62
2022/12/02 05:44:29;;;;;;;33.90;16.05;;;2.30;99.90;;;;;;5153292;28;20039;-60
2022/12/02 05:47:19;;;;;;;36.88;17.30;;;2.10;99.90;;;;;;5105651;28;20318;-60
2022/12/02 05:49:51;;;;;;;33.55;16.08;;;2.10;99.90;;;;;;5122721;28;20045;-60
2022/12/02 05:52:27;;;;;;;37.78;16.65;;;2.10;99.90;;;;;;5136602;28;20050;-59
2022/12/02 05:55:09;;;;;;;37.15;16.25;;;2.10;99.90;;;;;;5161256;28;20043;-60
2022/12/02 05:57:45;;;;;;;33.50;15.65;;;2.20;99.90;;;;;;5137595;28;20045;-60
2022/12/02 06:00:22;;;;;;;34.08;14.73;;;2.40;99.90;;;;;;5122883;28;20047;-60
2022/12/02 06:03:04;;;;;;;27.92;14.10;;;2.40;99.90;;;;;;5136528;28;20050;-60
2022/12/02 06:05:45;;;;;;;31.73;14.65;;;2.50;99.90;;;;;;5114903;28;20055;-59
2022/12/02 06:08:30;;;;;;;32.15;14.93;;;2.60;99.90;;;;;;5089003;28;20043;-61
2022/12/02 06:11:40;;;;;;;34.53;15.43;;;2.70;99.90;;;;;;5135171;28;20047;-61
2022/12/02 06:14:19;;;;;;;37.00;16.58;;;2.70;99.90;;;;;;5105398;29;20043;-60
2022/12/02 06:17:09;;;;;;;30.95;15.40;;;2.60;99.90;;;;;;5121102;28;20041;-61
2022/12/02 06:19:55;;;;;;;27.65;13.65;;;2.60;99.90;;;;;;5132195;28;20223;-60
2022/12/02 06:22:33;;;;;;;29.40;14.27;;;2.60;99.90;;;;;;5138575;28;20492;-59
2022/12/02 06:25:25;;;;;;;31.38;14.65;;;2.50;99.90;;;;;;5118429;28;20044;-60
2022/12/02 06:28:29;;;;;;;32.78;15.55;;;2.50;99.90;;;;;;5139971;28;20201;-59
2022/12/02 06:31:10;;;;;;;32.45;14.75;;;2.70;99.90;;;;;;5120330;28;20046;-58
2022/12/02 06:33:44;;;;;;;29.48;14.50;;;2.80;99.90;;;;;;5152876;28;20114;-60
2022/12/02 06:36:26;;;;;;;33.15;15.02;;;2.80;99.90;;;;;;5137220;28;20347;-59
2022/12/02 06:39:13;;;;;;;35.65;14.43;;;2.80;99.90;;;;;;5137954;28;20227;-59
2022/12/02 06:41:48;;;;;;;32.55;13.70;;;2.70;99.90;;;;;;5137281;28;20211;-60
2022/12/02 06:47:35;;;;;;;32.88;14.27;;;2.70;99.90;;;;;;5133740;29;20033;-60
2022/12/02 06:50:09;;;;;;;33.75;15.90;;;2.70;99.90;;;;;;5147937;28;20037;-62
2022/12/02 06:52:46;;;;;;;34.97;15.35;;;2.70;99.90;;;;;;5153730;28;20027;-61
2022/12/02 06:55:34;;;;;;;38.00;17.02;;;2.70;99.90;;;;;;5139790;28;20041;-61
2022/12/02 06:58:47;;;;;;;32.83;14.65;;;2.70;99.90;;;;;;5117300;29;20227;-59
2022/12/02 07:01:37;;;;;;;34.17;13.88;;;2.60;99.90;;;;;;5121045;28;20045;-60
2022/12/02 07:04:31;;;;;;;33.10;14.68;;;2.60;99.90;;;;;;5127397;28;20057;-60
2022/12/02 07:07:22;;;;;;;32.63;14.45;;;2.60;99.90;;;;;;5155656;28;20058;-61
2022/12/02 07:10:00;;;;;;;31.92;13.98;;;2.70;99.90;;;;;;5134455;28;20051;-60
2022/12/02 07:12:44;;;;;;;31.60;15.45;;;2.80;99.90;;;;;;5114776;28;20036;-60
2022/12/02 07:15:28;;;;;;;38.88;16.63;;;2.80;99.90;;;;;;5127502;28;20022;-60
2022/12/02 07:18:16;;;;;;;36.70;16.02;;;2.70;99.90;;;;;;5152229;28;20050;-60
2022/12/02 07:20:48;;;;;;;32.90;15.68;;;2.70;99.90;;;;;;5142252;28;20023;-62
2022/12/02 07:23:28;;;;;;;37.65;16.33;;;2.70;99.90;;;;;;5126614;28;20051;-60
2022/12/02 07:25:59;;;;;;;36.53;16.48;;;2.80;99.90;;;;;;5151293;28;20052;-60
2022/12/02 07:28:40;;;;;;;28.52;14.93;;;2.80;99.90;;;;;;5135769;28;20037;-60
2022/12/02 07:31:18;;;;;;;37.03;16.85;;;2.80;99.90;;;;;;5124009;28;20032;-60
2022/12/02 07:33:50;;;;;;;36.83;16.83;;;2.90;99.90;;;;;;5131714;28;20041;-60
2022/12/02 07:36:22;;;;;;;34.03;15.98;;;2.90;99.90;;;;;;5135447;28;20042;-60
2022/12/02 07:38:53;;;;;;;30.20;14.98;;;2.90;99.90;;;;;;5130124;28;20060;-61
2022/12/02 07:41:28;;;;;;;30.83;15.55;;;2.90;99.90;;;;;;5130309;28;20049;-60
2022/12/02 07:43:59;;;;;;;29.40;14.18;;;2.70;99.90;;;;;;5134938;28;20351;-60
2022/12/02 07:46:32;;;;;;;37.78;16.75;;;2.80;99.90;;;;;;5152078;28;20064;-61
2022/12/02 07:49:06;;;;;;;30.50;15.77;;;2.80;99.90;;;;;;5135822;28;20058;-60
2022/12/02 07:51:43;;;;;;;;;;;2.90;99.90;;;;;;5135898;28;20139;-62
2022/12/02 07:54:17;;;;;;;33.97;16.60;;;3.00;99.90;;;;;;5105054;29;19915;-61
2022/12/02 07:56:54;;;;;;;34.33;16.27;;;3.10;99.90;;;;;;5127722;28;20043;-60
2022/12/02 07:59:34;;;;;;;34.55;16.15;;;3.10;99.90;;;;;;5120322;28;20057;-60
2022/12/02 08:02:08;;;;;;;35.92;16.58;;;3.00;99.90;;;;;;5129224;28;20045;-60
2022/12/02 08:04:51;;;;;;;34.30;14.98;;;2.80;99.90;;;;;;5108261;28;20059;-59
2022/12/02 08:07:23;;;;;;;38.65;17.17;;;2.80;99.90;;;;;;5121158;28;20035;-60
2022/12/02 08:09:58;;;;;;;34.58;15.90;;;2.80;99.90;;;;;;5135816;28;20069;-59
2022/12/02 08:12:35;;;;;;;35.55;16.65;;;2.80;99.90;;;;;;5135468;28;20365;-59
2022/12/02 08:15:13;;;;;;;34.90;16.35;;;2.90;99.90;;;;;;5134885;28;20046;-60
2022/12/02 08:17:44;;;;;;;30.67;15.02;;;3.00;99.90;;;;;;5125745;28;20056;-61
2022/12/02 08:20:16;;;;;;;33.80;15.15;;;2.90;99.90;;;;;;5149902;28;20061;-59
2022/12/02 08:22:52;;;;;;;37.88;16.50;;;2.70;99.90;;;;;;5146983;28;20334;-60
2022/12/02 08:25:26;;;;;;;34.17;15.90;;;2.80;99.90;;;;;;5146550;28;20035;-60
2022/12/02 08:28:01;;;;;;;30.13;14.40;;;2.90;99.90;;;;;;5151598;28;20042;-59
2022/12/02 08:30:38;;;;;;;34.90;15.93;;;3.10;99.90;;;;;;5113975;28;20039;-60
2022/12/02 08:33:13;;;;;;;32.30;15.88;;;3.20;99.90;;;;;;5148081;28;20038;-60
2022/12/02 08:35:46;;;;;;;40.88;16.65;;;3.30;99.90;;;;;;5153572;28;20034;-60
2022/12/02 08:38:21;;;;;;;37.60;17.55;;;3.30;99.90;;;;;;5114853;28;20038;-59
2022/12/02 08:40:53;;;;;;;35.67;15.95;;;3.20;99.90;;;;;;5150250;28;20361;-60
2022/12/02 08:43:28;;;;;;;30.70;14.52;;;3.30;99.90;;;;;;5130279;28;20035;-63
2022/12/02 08:46:02;;;;;;;32.83;15.65;;;3.50;99.90;;;;;;5132246;28;20057;-59
2022/12/02 08:48:36;;;;;;;33.03;16.75;;;3.50;99.90;;;;;;5128847;28;20046;-61
2022/12/02 08:51:08;;;;;;;34.78;17.00;;;3.50;99.90;;;;;;5150032;28;20324;-59
2022/12/02 08:53:39;;;;;;;38.35;16.02;;;3.50;99.90;;;;;;5114304;28;20045;-59
2022/12/02 08:56:11;;;;;;;35.33;17.33;;;3.60;99.90;;;;;;5126511;28;20043;-60
2022/12/02 08:58:48;;;;;;;43.00;17.70;;;3.60;99.90;;;;;;5153310;28;20034;-61
2022/12/02 09:01:22;;;;;;;36.28;16.80;;;3.40;99.90;;;;;;5133068;28;20224;-59
2022/12/02 09:03:56;;;;;;;33.65;16.48;;;3.50;99.90;;;;;;5153770;28;20049;-60
2022/12/02 09:06:32;;;;;;;32.70;15.77;;;3.60;99.90;;;;;;5145453;28;20063;-60
2022/12/02 09:09:05;;;;;;;34.33;16.25;;;3.80;99.90;;;;;;5137653;28;20052;-59
2022/12/02 09:11:41;;;;;;;38.90;17.05;;;3.70;99.90;;;;;;5124131;28;20032;-59
2022/12/02 09:14:23;;;;;;;40.53;17.30;;;3.60;99.90;;;;;;5154598;28;20041;-61
2022/12/02 09:16:57;;;;;;;35.15;15.65;;;3.70;99.90;;;;;;5154320;28;20034;-60
2022/12/02 09:19:34;;;;;;;38.58;17.55;;;3.90;99.90;;;;;;5121357;28;20038;-59
2022/12/02 09:22:06;;;;;;;39.47;16.83;;;3.90;99.90;;;;;;5133435;28;20043;-59
2022/12/02 09:24:43;;;;;;;34.05;15.93;;;3.80;99.90;;;;;;5154102;28;20031;-59
2022/12/02 09:27:14;;;;;;;38.28;17.15;;;3.80;99.90;;;;;;5137703;28;20365;-61
2022/12/02 09:29:48;;;;;;;37.00;16.80;;;3.70;99.90;;;;;;5118712;28;20045;-59
2022/12/02 09:32:19;;;;;;;38.92;17.75;;;3.80;99.90;;;;;;5123350;28;20049;-60
2022/12/02 09:34:53;;;;;;;39.72;16.33;;;3.80;99.90;;;;;;5137428;28;20319;-60
2022/12/02 09:37:34;;;;;;;39.20;19.15;;;3.60;99.90;;;;;;5138336;28;20039;-59
2022/12/02 09:40:12;;;;;;;37.47;17.63;;;3.50;99.90;;;;;;5137707;28;20038;-61
2022/12/02 09:42:46;;;;;;;34.55;16.75;;;3.40;99.90;;;;;;5153206;28;20046;-59
2022/12/02 09:45:23;;;;;;;;;;;3.00;99.90;;;;;;5153598;28;20353;-60
2022/12/02 09:47:57;;;;;;;33.05;15.82;;;2.80;99.90;;;;;;5153810;28;20102;-60
2022/12/02 09:50:28;;;;;;;41.22;18.13;;;2.70;99.90;;;;;;5154328;28;20308;-60
2022/12/02 09:53:13;;;;;;;38.13;17.55;;;2.60;99.90;;;;;;5137805;28;20040;-60
2022/12/02 09:55:47;;;;;;;38.58;16.90;;;2.50;99.90;;;;;;5136646;28;20050;-61
2022/12/02 09:58:23;;;;;;;40.83;16.63;;;2.40;99.90;;;;;;5136973;28;20043;-62
2022/12/02 10:00:56;;;;;;;38.63;18.00;;;2.60;99.90;;;;;;5121074;28;20365;-61
2022/12/02 10:03:33;;;;;;;40.00;17.83;;;2.60;99.90;;;;;;5140189;28;20042;-61
2022/12/02 10:06:18;;;;;;;43.17;18.77;;;2.60;99.90;;;;;;5143341;28;20139;-62
2022/12/02 10:08:56;;;;;;;133.85;73.53;;;2.60;99.90;;;;;;5153750;28;20031;-61
2022/12/02 10:11:32;;;;;;;84.18;50.17;;;2.80;99.90;;;;;;5136579;28;20026;-60
2022/12/02 10:14:08;;;;;;;185.60;98.57;;;2.80;99.90;;;;;;5136210;28;20054;-62
2022/12/02 10:16:39;;;;;;;118.70;58.08;;;3.00;99.90;;;;;;5136706;28;20065;-63
2022/12/02 10:19:23;;;;;;;82.93;46.95;;;3.00;99.90;;;;;;5121010;28;20449;-61
2022/12/02 10:21:54;;;;;;;82.22;48.67;;;3.00;99.90;;;;;;5117905;29;20057;-61
2022/12/02 10:24:38;;;;;;;83.40;53.60;;;3.20;99.90;;;;;;5116708;29;20035;-61
2022/12/02 10:27:33;;;;;;;43.30;20.35;;;3.30;99.90;;;;;;5139886;28;20365;-62
2022/12/02 10:30:25;;;;;;;190.85;145.48;;;3.50;99.90;;;;;;5136307;28;20050;-60
2022/12/02 10:33:26;;;;;;;57.42;31.67;;;3.50;99.90;;;;;;5136760;28;20031;-60
2022/12/02 10:36:04;;;;;;;65.82;36.47;;;3.30;99.90;;;;;;5094104;29;20050;-61
2022/12/02 10:38:46;;;;;;;48.50;23.00;;;3.00;99.90;;;;;;5091727;29;20050;-60
2022/12/02 10:41:23;;;;;;;47.40;24.83;;;3.00;99.90;;;;;;5092283;29;20040;-62
2022/12/02 10:44:01;;;;;;;39.88;21.45;;;3.20;99.90;;;;;;5096378;29;20062;-61
2022/12/02 10:46:36;;;;;;;44.58;20.60;;;3.20;99.90;;;;;;5076090;29;20048;-61
2022/12/02 10:49:33;;;;;;;44.83;20.73;;;3.20;99.90;;;;;;5091129;29;20043;-61
2022/12/02 10:52:14;;;;;;;48.13;23.30;;;3.00;99.90;;;;;;5110731;29;20055;-61
2022/12/02 10:54:52;;;;;;;75.07;41.30;;;2.90;99.90;;;;;;5100609;29;20035;-60
2022/12/02 10:57:33;;;;;;;48.15;20.30;;;2.90;99.90;;;;;;5072850;29;20218;-61
2022/12/02 11:00:25;;;;;;;46.35;20.00;;;2.80;99.90;;;;;;5081643;29;20048;-60
2022/12/02 11:03:05;;;;;;;88.60;47.53;;;2.80;99.90;;;;;;5090699;29;20047;-60
2022/12/02 11:05:41;;;;;;;54.17;26.55;;;2.70;99.90;;;;;;5072465;29;20068;-61
2022/12/02 11:08:15;;;;;;;53.50;25.67;;;2.70;99.90;;;;;;5128431;28;20061;-61
2022/12/02 11:11:12;;;;;;;48.75;21.95;;;2.70;99.90;;;;;;5149165;28;20053;-61
2022/12/02 11:14:11;;;;;;;43.05;21.25;;;2.60;99.90;;;;;;5131067;28;20055;-61
2022/12/02 11:16:45;;;;;;;233.65;139.68;;;2.30;99.90;;;;;;5129688;28;20090;-61
2022/12/02 11:19:34;;;;;;;43.80;21.30;;;2.30;99.90;;;;;;5115032;29;20054;-61
2022/12/02 11:23:14;;;;;;;50.95;25.67;;;2.10;99.90;;;;;;5122126;28;20039;-60
2022/12/02 11:26:08;;;;;;;57.42;25.60;;;2.10;99.90;;;;;;5097888;29;20209;-61
2022/12/02 11:29:16;;;;;;;178.63;87.50;;;2.20;99.90;;;;;;5142365;28;20054;-61
2022/12/02 11:32:21;;;;;;;201.00;101.38;;;2.10;99.90;;;;;;5144700;28;20042;-61
2022/12/02 11:34:58;;;;;;;110.40;55.70;;;2.10;99.90;;;;;;5150475;28;20026;-60
2022/12/02 11:37:32;;;;;;;72.07;37.95;;;2.00;99.90;;;;;;5142571;28;20053;-60
2022/12/02 11:40:18;;;;;;;303.42;150.90;;;2.00;99.90;;;;;;5151750;28;20315;-61
2022/12/02 11:42:51;;;;;;;70.88;31.77;;;2.00;99.90;;;;;;5150433;28;20060;-60
2022/12/02 11:45:23;;;;;;;78.30;40.67;;;2.10;99.90;;;;;;5127776;28;20247;-59
2022/12/02 11:47:58;;;;;;;69.45;32.20;;;2.10;99.90;;;;;;5148953;28;20039;-60
2022/12/02 11:50:41;;;;;;;148.88;95.22;;;2.10;99.90;;;;;;5115746;28;20039;-60
2022/12/02 11:53:32;;;;;;;55.45;29.15;;;2.20;99.90;;;;;;5135590;28;20219;-60
2022/12/02 11:56:15;;;;;;;457.90;348.10;;;2.40;99.90;;;;;;5133407;28;20386;-60
2022/12/02 11:58:47;;;;;;;76.22;47.13;;;2.60;99.90;;;;;;5133450;28;20226;-60
2022/12/02 12:01:22;;;;;;;76.75;40.08;;;2.40;99.90;;;;;;5119703;28;20045;-60
2022/12/02 12:03:58;;;;;;;58.90;29.48;;;2.40;99.90;;;;;;5134846;28;20038;-60
2022/12/02 12:06:34;;;;;;;44.65;23.17;;;2.50;99.90;;;;;;5117160;28;20066;-60
2022/12/02 12:09:12;;;;;;;50.75;21.10;;;2.60;99.90;;;;;;5147876;28;20049;-60
2022/12/02 12:12:13;;;;;;;61.65;32.60;;;2.40;99.90;;;;;;5136188;28;20042;-59
2022/12/02 12:15:03;;;;;;;106.07;63.33;;;2.10;99.90;;;;;;5140535;28;20050;-60
2022/12/02 12:17:37;;;;;;;81.72;39.22;;;2.10;99.90;;;;;;5125978;28;20038;-59
2022/12/02 12:20:15;;;;;;;67.18;30.35;;;2.10;99.90;;;;;;5148043;28;20057;-61
2022/12/02 12:22:47;;;;;;;55.90;22.67;;;2.20;99.90;;;;;;5106765;28;20047;-61
2022/12/02 12:25:41;;;;;;;49.38;22.35;;;2.30;99.90;;;;;;5147716;28;20045;-60
2022/12/02 12:28:29;;;;;;;50.05;23.08;;;2.30;99.90;;;;;;5139209;28;20049;-60
2022/12/02 12:31:09;;;;;;;49.33;23.42;;;2.40;99.90;;;;;;5144084;28;20069;-60
2022/12/02 12:33:42;;;;;;;53.88;22.48;;;2.40;99.90;;;;;;5112538;28;20213;-60
2022/12/02 12:36:13;;;;;;;56.13;21.85;;;2.40;99.90;;;;;;5128080;28;20057;-62
2022/12/02 12:38:45;;;;;;;52.65;24.35;;;2.40;99.90;;;;;;5133651;28;20323;-60
2022/12/02 12:41:19;;;;;;;46.03;20.20;;;2.40;99.90;;;;;;5119455;28;20161;-63
2022/12/02 12:43:55;;;;;;;47.30;22.42;;;2.50;99.90;;;;;;5135212;28;20475;-60
2022/12/02 12:46:29;;;;;;;63.75;30.60;;;2.50;99.90;;;;;;5118657;28;20031;-61
2022/12/02 12:49:03;;;;;;;48.58;24.55;;;2.40;99.90;;;;;;5134356;28;20054;-62
2022/12/02 12:51:35;;;;;;;74.57;41.08;;;2.20;99.90;;;;;;5115861;28;20045;-60
2022/12/02 12:54:09;;;;;;;46.30;21.67;;;2.20;99.90;;;;;;5119209;28;20243;-60
2022/12/02 12:56:40;;;;;;;41.08;18.90;;;2.20;99.90;;;;;;5133201;28;20031;-61
2022/12/02 12:59:14;;;;;;;44.38;19.83;;;2.30;99.90;;;;;;5100395;28;20046;-61
2022/12/02 13:01:46;;;;;;;52.30;23.02;;;2.30;99.90;;;;;;5144803;28;20031;-60
2022/12/02 13:04:21;;;;;;;41.22;21.05;;;2.20;99.90;;;;;;5124525;28;20073;-60
2022/12/02 13:06:54;;;;;;;64.78;37.65;;;2.10;99.90;;;;;;5124954;28;20046;-60
2022/12/02 13:09:31;;;;;;;60.78;32.13;;;1.90;99.90;;;;;;5109979;28;20048;-60
2022/12/02 13:12:05;;;;;;;87.18;51.30;;;2.00;99.90;;;;;;5115477;28;20039;-61
2022/12/02 13:14:39;;;;;;;85.25;49.92;;;2.10;99.90;;;;;;5121363;28;20039;-61
2022/12/02 13:17:14;;;;;;;171.18;109.47;;;2.00;99.90;;;;;;5135331;28;20092;-61
2022/12/02 13:19:45;;;;;;;129.20;75.63;;;1.90;99.90;;;;;;5154308;28;20068;-60
2022/12/02 13:22:25;;;;;;;71.22;38.42;;;1.90;99.90;;;;;;5170643;28;20030;-60
2022/12/02 13:24:57;;;;;;;68.65;32.13;;;2.00;99.90;;;;;;5122154;28;20043;-61
2022/12/02 13:27:28;;;;;;;44.85;21.83;;;1.90;99.90;;;;;;5119076;28;20077;-61
2022/12/02 13:30:07;;;;;;;43.22;18.52;;;1.90;99.90;;;;;;5121494;28;20042;-62
2022/12/02 13:32:43;;;;;;;88.20;48.33;;;2.00;99.90;;;;;;5106755;28;20342;-60
2022/12/02 13:35:19;;;;;;;490.42;233.93;;;2.00;99.90;;;;;;5118601;28;20353;-62
2022/12/02 13:37:53;;;;;;;531.65;240.93;;;2.00;99.90;;;;;;5132545;28;20057;-63
2022/12/02 13:40:32;;;;;;;195.30;97.30;;;2.00;99.90;;;;;;5104476;28;20044;-60